createdAt,value
2022-10-23T00:00:09.558Z,14.02
2022-10-23T00:02:36.092Z,14.03
2022-10-23T00:05:02.830Z,14.04
2022-10-23T00:09:57.302Z,14.01
2022-10-23T00:12:23.834Z,14.01
2022-10-23T00:14:50.307Z,14.01
2022-10-23T00:17:16.812Z,13.99
2022-10-23T00:19:43.302Z,14.01
2022-10-23T00:22:09.820Z,14.01
2022-10-23T00:24:36.339Z,14.02
2022-10-23T00:27:04.225Z,14.03
2022-10-23T00:29:30.739Z,14.04
2022-10-23T00:31:57.233Z,14.03
2022-10-23T00:34:23.664Z,14.05
2022-10-23T00:36:50.218Z,14.05
2022-10-23T00:39:16.772Z,14.07
2022-10-23T00:41:43.311Z,14.10
2022-10-23T00:44:49.787Z,14.11
2022-10-23T00:47:17.132Z,14.12
2022-10-23T00:49:43.753Z,14.13
2022-10-23T00:52:13.079Z,14.15
2022-10-23T00:54:42.110Z,14.15
2022-10-23T00:57:12.690Z,14.16
2022-10-23T00:59:41.455Z,14.16
2022-10-23T01:02:08.331Z,14.17
2022-10-23T01:04:36.189Z,14.17
2022-10-23T01:07:09.190Z,14.18
2022-10-23T01:09:40.889Z,14.16
2022-10-23T01:12:13.392Z,14.17
2022-10-23T01:14:50.689Z,14.16
2022-10-23T01:17:24.860Z,14.15
2022-10-23T01:20:01.278Z,14.14
2022-10-23T01:22:42.846Z,14.13
2022-10-23T01:25:23.637Z,14.11
2022-10-23T01:27:55.992Z,14.10
2022-10-23T01:30:22.601Z,14.08
2022-10-23T01:32:53.881Z,14.06
2022-10-23T01:35:24.192Z,14.03
2022-10-23T01:37:55.553Z,14.01
2022-10-23T01:40:25.408Z,13.99
2022-10-23T01:42:57.262Z,13.97
2022-10-23T01:45:28.075Z,13.94
2022-10-23T01:47:56.457Z,13.92
2022-10-23T01:50:24.956Z,13.88
2022-10-23T01:52:51.754Z,13.85
2022-10-23T01:55:18.559Z,13.80
2022-10-23T01:57:47.461Z,13.77
2022-10-23T02:00:17.936Z,13.74
2022-10-23T02:02:46.083Z,13.71
2022-10-23T02:05:17.187Z,13.68
2022-10-23T02:07:44.935Z,13.65
2022-10-23T02:10:13.639Z,13.62
2022-10-23T02:12:50.031Z,13.59
2022-10-23T02:15:25.627Z,13.58
2022-10-23T02:18:02.399Z,13.56
2022-10-23T02:20:38.326Z,13.53
2022-10-23T02:23:14.235Z,13.51
2022-10-23T02:25:48.030Z,13.48
2022-10-23T02:28:19.785Z,13.45
2022-10-23T02:30:50.125Z,13.43
2022-10-23T02:33:17.728Z,13.41
2022-10-23T02:35:44.672Z,13.40
2022-10-23T02:38:33.968Z,13.37
2022-10-23T02:41:10.859Z,13.35
2022-10-23T02:43:43.511Z,13.34
2022-10-23T02:46:28.976Z,13.29
2022-10-23T02:49:04.366Z,13.26
2022-10-23T02:51:39.178Z,13.23
2022-10-23T02:54:12.172Z,13.20
2022-10-23T02:56:44.253Z,13.16
2022-10-23T02:59:18.811Z,13.11
2022-10-23T03:01:50.742Z,13.06
2022-10-23T03:04:19.637Z,13.01
2022-10-23T03:06:46.710Z,12.98
2022-10-23T03:09:13.198Z,12.95
2022-10-23T03:11:39.728Z,12.92
2022-10-23T03:14:06.729Z,12.89
2022-10-23T03:16:33.247Z,12.86
2022-10-23T03:19:01.099Z,12.83
2022-10-23T03:21:27.756Z,12.77
2022-10-23T03:23:54.234Z,12.74
2022-10-23T03:26:20.806Z,12.70
2022-10-23T03:28:47.341Z,12.68
2022-10-23T03:31:13.881Z,12.64
2022-10-23T03:33:40.408Z,12.61
2022-10-23T03:36:09.419Z,12.57
2022-10-23T03:38:36.246Z,12.53
2022-10-23T03:41:02.778Z,12.50
2022-10-23T03:43:29.264Z,12.46
2022-10-23T03:45:55.943Z,12.44
2022-10-23T03:48:22.443Z,12.40
2022-10-23T03:50:48.962Z,12.37
2022-10-23T03:53:16.794Z,12.33
2022-10-23T03:55:44.230Z,12.28
2022-10-23T03:58:10.796Z,12.25
2022-10-23T04:00:37.312Z,12.21
2022-10-23T04:03:03.979Z,12.17
2022-10-23T04:05:30.559Z,12.13
2022-10-23T04:07:57.252Z,12.08
2022-10-23T04:10:25.141Z,12.06
2022-10-23T04:12:51.725Z,12.03
2022-10-23T04:15:18.271Z,12.00
2022-10-23T04:17:44.816Z,11.95
2022-10-23T04:20:11.360Z,11.89
2022-10-23T04:22:37.886Z,11.85
2022-10-23T04:25:04.933Z,11.78
2022-10-23T04:27:32.896Z,11.75
2022-10-23T04:29:59.358Z,11.73
2022-10-23T04:32:25.997Z,11.71
2022-10-23T04:34:52.510Z,11.68
2022-10-23T04:37:19.189Z,11.65
2022-10-23T04:39:45.623Z,11.61
2022-10-23T04:42:12.148Z,11.58
2022-10-23T04:44:39.992Z,11.55
2022-10-23T04:47:06.513Z,11.51
2022-10-23T04:49:32.954Z,11.48
2022-10-23T04:51:59.554Z,11.44
2022-10-23T04:54:26.063Z,11.40
2022-10-23T04:56:52.571Z,11.37
2022-10-23T04:59:19.049Z,11.34
2022-10-23T05:01:46.908Z,11.32
2022-10-23T05:04:13.442Z,11.29
2022-10-23T05:06:39.965Z,11.25
2022-10-23T05:09:06.490Z,11.22
2022-10-23T05:11:32.936Z,11.19
2022-10-23T05:13:59.406Z,11.16
2022-10-23T05:16:37.737Z,11.12
2022-10-23T05:19:09.114Z,11.11
2022-10-23T05:21:36.028Z,11.09
2022-10-23T05:24:02.608Z,11.07
2022-10-23T05:26:30.672Z,11.06
2022-10-23T05:28:57.207Z,11.04
2022-10-23T05:31:25.224Z,11.03
2022-10-23T05:33:52.608Z,11.01
2022-10-23T05:36:21.919Z,10.99
2022-10-23T05:42:26.001Z,10.95
2022-10-23T05:44:52.512Z,10.92
2022-10-23T05:47:19.021Z,10.91
2022-10-23T05:49:45.533Z,10.88
2022-10-23T05:52:14.030Z,10.86
2022-10-23T05:54:40.979Z,10.82
2022-10-23T05:57:07.798Z,10.81
2022-10-23T05:59:34.415Z,10.79
2022-10-23T06:02:01.130Z,10.79
2022-10-23T06:04:28.038Z,10.76
2022-10-23T06:06:54.603Z,10.76
2022-10-23T06:09:22.564Z,10.75
2022-10-23T06:11:49.068Z,10.73
2022-10-23T06:14:15.573Z,10.71
2022-10-23T06:16:42.025Z,10.71
2022-10-23T06:19:10.066Z,10.70
2022-10-23T06:21:36.635Z,10.70
2022-10-23T06:24:03.922Z,10.70
2022-10-23T06:26:31.786Z,10.70
2022-10-23T06:28:58.744Z,10.71
2022-10-23T06:31:25.305Z,10.72
2022-10-23T06:33:51.915Z,10.75
2022-10-23T06:36:18.793Z,10.75
2022-10-23T06:38:45.326Z,10.77
2022-10-23T06:41:14.275Z,10.80
2022-10-23T06:43:42.250Z,10.84
2022-10-23T06:46:08.816Z,10.89
2022-10-23T06:48:35.778Z,10.93
2022-10-23T06:51:06.315Z,10.93
2022-10-23T06:53:33.320Z,10.96
2022-10-23T06:56:00.313Z,11.00
2022-10-23T06:58:26.922Z,11.04
2022-10-23T07:00:55.338Z,11.09
2022-10-23T07:03:22.145Z,11.14
2022-10-23T07:05:48.668Z,11.20
2022-10-23T07:08:15.227Z,11.26
2022-10-23T07:10:41.914Z,11.32
2022-10-23T07:13:08.489Z,11.39
2022-10-23T07:15:35.954Z,11.45
2022-10-23T07:18:04.049Z,11.53
2022-10-23T07:20:30.818Z,11.60
2022-10-23T07:22:57.535Z,11.67
2022-10-23T07:25:26.251Z,11.75
2022-10-23T07:27:53.256Z,11.83
2022-10-23T07:30:19.714Z,11.92
2022-10-23T07:32:46.212Z,12.00
2022-10-23T07:37:42.006Z,12.14
2022-10-23T07:40:09.650Z,12.20
2022-10-23T07:42:36.175Z,12.27
2022-10-23T07:45:02.765Z,12.32
2022-10-23T07:47:29.296Z,12.39
2022-10-23T07:49:55.841Z,12.45
2022-10-23T07:52:23.817Z,12.53
2022-10-23T07:54:50.935Z,12.59
2022-10-23T07:57:17.705Z,12.67
2022-10-23T07:59:44.199Z,12.73
2022-10-23T08:02:12.017Z,12.83
2022-10-23T08:04:38.573Z,12.92
2022-10-23T08:07:05.007Z,12.99
2022-10-23T08:09:32.883Z,13.08
2022-10-23T08:11:59.343Z,13.15
2022-10-23T08:14:26.344Z,13.23
2022-10-23T08:16:53.021Z,13.32
2022-10-23T08:19:19.535Z,13.37
2022-10-23T08:21:46.070Z,13.45
2022-10-23T08:24:12.801Z,13.52
2022-10-23T08:26:40.993Z,13.61
2022-10-23T08:29:07.520Z,13.69
2022-10-23T08:31:34.036Z,13.76
2022-10-23T08:34:00.526Z,13.82
2022-10-23T08:36:28.505Z,13.89
2022-10-23T08:38:56.392Z,13.95
2022-10-23T08:41:26.028Z,14.01
2022-10-23T08:44:00.361Z,14.06
2022-10-23T08:46:31.161Z,14.12
2022-10-23T08:49:08.982Z,14.16
2022-10-23T08:51:40.884Z,14.21
2022-10-23T08:54:13.990Z,14.24
2022-10-23T09:03:38.386Z,14.40
2022-10-23T09:06:15.249Z,14.42
2022-10-23T09:08:52.439Z,14.47
2022-10-23T09:11:26.778Z,14.52
2022-10-23T09:14:20.135Z,14.59
2022-10-23T09:17:00.264Z,14.65
2022-10-23T09:19:28.176Z,14.74
2022-10-23T09:21:56.262Z,14.81
2022-10-23T09:24:25.529Z,14.90
2022-10-23T09:26:54.025Z,14.96
2022-10-23T09:29:25.972Z,15.05
2022-10-23T09:31:54.432Z,15.11
2022-10-23T09:34:23.690Z,15.17
2022-10-23T09:39:28.805Z,15.29
2022-10-23T09:41:57.043Z,15.35
2022-10-23T09:44:25.391Z,15.44
2022-10-23T09:46:54.023Z,15.49
2022-10-23T09:49:23.671Z,15.56
2022-10-23T09:52:00.002Z,15.63
2022-10-23T09:54:27.991Z,15.69
2022-10-23T09:56:55.907Z,15.75
2022-10-23T09:59:26.675Z,15.82
2022-10-23T10:01:55.949Z,15.89
2022-10-23T10:04:32.631Z,15.94
2022-10-23T10:07:03.631Z,16.00
2022-10-23T10:09:30.266Z,16.08
2022-10-23T10:12:10.379Z,16.16
2022-10-23T10:14:52.747Z,16.23
2022-10-23T10:17:30.322Z,16.33
2022-10-23T10:20:18.796Z,16.41
2022-10-23T10:22:52.805Z,16.50
2022-10-23T10:25:25.586Z,16.58
2022-10-23T10:28:01.778Z,16.65
2022-10-23T10:30:34.721Z,16.73
2022-10-23T10:33:09.308Z,16.81
2022-10-23T10:35:42.846Z,16.88
2022-10-23T10:38:29.888Z,16.96
2022-10-23T10:41:25.169Z,17.07
2022-10-23T10:44:03.190Z,17.15
2022-10-23T10:46:33.433Z,17.24
2022-10-23T10:49:06.281Z,17.34
2022-10-23T10:51:38.965Z,17.39
2022-10-23T10:54:19.459Z,17.42
2022-10-23T10:56:47.582Z,17.46
2022-10-23T10:59:20.799Z,17.51
2022-10-23T11:01:53.343Z,17.58
2022-10-23T11:04:30.630Z,17.66
2022-10-23T11:06:59.479Z,17.75
2022-10-23T11:09:29.162Z,17.85
2022-10-23T11:11:56.121Z,17.93
2022-10-23T11:14:24.892Z,18.02
2022-10-23T11:16:54.682Z,18.11
2022-10-23T11:19:25.448Z,18.18
2022-10-23T11:21:58.280Z,18.29
2022-10-23T11:25:02.804Z,18.37
2022-10-23T11:28:04.450Z,18.51
2022-10-23T11:30:40.659Z,18.60
2022-10-23T11:33:35.703Z,18.67
2022-10-23T11:36:11.889Z,18.74
2022-10-23T11:38:40.774Z,18.78
2022-10-23T11:41:22.282Z,18.83
2022-10-23T11:43:54.140Z,18.88
2022-10-23T11:46:31.566Z,18.94
2022-10-23T11:48:58.843Z,18.97
2022-10-23T11:51:27.765Z,19.02
2022-10-23T11:54:06.349Z,19.05
2022-10-23T11:56:34.376Z,19.09
2022-10-23T11:59:22.279Z,19.14
2022-10-23T12:01:51.754Z,19.21
2022-10-23T12:04:23.945Z,19.28
2022-10-23T12:06:53.948Z,19.35
2022-10-23T12:09:31.664Z,19.44
2022-10-23T12:12:13.656Z,19.51
2022-10-23T12:14:42.531Z,19.56
2022-10-23T12:17:29.222Z,19.61
2022-10-23T12:20:21.179Z,19.64
2022-10-23T12:22:58.586Z,19.67
2022-10-23T12:25:34.659Z,19.70
2022-10-23T12:28:12.139Z,19.68
2022-10-23T12:30:45.356Z,19.66
2022-10-23T12:33:20.636Z,19.65
2022-10-23T12:36:16.940Z,19.60
2022-10-23T12:38:45.695Z,19.55
2022-10-23T12:41:15.578Z,19.53
2022-10-23T12:43:50.266Z,19.53
2022-10-23T12:46:27.795Z,19.52
2022-10-23T12:48:55.401Z,19.52
2022-10-23T12:51:24.239Z,19.51
2022-10-23T12:53:50.899Z,19.51
2022-10-23T12:56:18.537Z,19.52
2022-10-23T12:58:49.715Z,19.55
2022-10-23T13:01:24.503Z,19.59
2022-10-23T13:03:52.344Z,19.60
2022-10-23T13:06:19.092Z,19.62
2022-10-23T13:08:47.870Z,19.61
2022-10-23T13:11:17.421Z,19.58
2022-10-23T13:13:44.155Z,19.56
2022-10-23T13:16:16.648Z,19.55
2022-10-23T13:18:43.473Z,19.54
2022-10-23T13:21:17.648Z,19.55
2022-10-23T13:23:44.246Z,19.55
2022-10-23T13:26:25.768Z,19.56
2022-10-23T13:28:52.770Z,19.60
2022-10-23T13:31:31.066Z,19.62
2022-10-23T13:34:18.752Z,19.63
2022-10-23T13:36:58.297Z,19.63
2022-10-23T13:39:27.140Z,19.61
2022-10-23T13:41:53.873Z,19.59
2022-10-23T13:44:23.376Z,19.59
2022-10-23T13:46:51.740Z,19.55
2022-10-23T13:49:18.924Z,19.52
2022-10-23T13:51:48.661Z,19.51
2022-10-23T13:54:18.128Z,19.48
2022-10-23T13:56:45.250Z,19.46
2022-10-23T13:59:11.950Z,19.46
2022-10-23T14:01:39.350Z,19.44
2022-10-23T14:04:08.178Z,19.44
2022-10-23T14:06:34.882Z,19.39
2022-10-23T14:09:01.346Z,19.35
2022-10-23T14:11:27.916Z,19.33
2022-10-23T14:13:54.471Z,19.28
2022-10-23T14:16:21.038Z,19.24
2022-10-23T14:18:47.877Z,19.22
2022-10-23T14:21:18.097Z,19.19
2022-10-23T14:23:44.612Z,19.17
2022-10-23T14:26:12.831Z,19.16
2022-10-23T14:28:39.604Z,19.12
2022-10-23T14:31:08.189Z,19.09
2022-10-23T14:33:34.766Z,19.08
2022-10-23T14:36:01.783Z,19.05
2022-10-23T14:38:30.047Z,19.03
2022-10-23T14:40:56.548Z,18.98
2022-10-23T14:43:24.426Z,18.96
2022-10-23T14:45:51.397Z,18.94
2022-10-23T14:48:18.203Z,18.92
2022-10-23T14:50:46.717Z,18.89
2022-10-23T14:53:13.554Z,18.85
2022-10-23T14:55:41.689Z,18.80
2022-10-23T14:58:08.368Z,18.74
2022-10-23T15:00:34.901Z,18.70
2022-10-23T15:03:01.493Z,18.66
2022-10-23T15:05:27.993Z,18.62
2022-10-23T15:07:55.410Z,18.57
2022-10-23T15:10:21.946Z,18.52
2022-10-23T15:12:49.846Z,18.47
2022-10-23T15:15:16.488Z,18.41
2022-10-23T15:17:42.984Z,18.35
2022-10-23T15:20:10.293Z,18.30
2022-10-23T15:22:37.166Z,18.22
2022-10-23T15:25:04.209Z,18.17
2022-10-23T15:27:30.651Z,18.13
2022-10-23T15:29:58.475Z,18.07
2022-10-23T15:32:25.104Z,18.03
2022-10-23T15:34:51.892Z,17.95
2022-10-23T15:37:18.372Z,17.89
2022-10-23T15:39:45.054Z,17.83
2022-10-23T15:42:11.637Z,17.76
2022-10-23T15:44:40.285Z,17.68
2022-10-23T15:47:08.546Z,17.60
2022-10-23T15:49:35.250Z,17.54
2022-10-23T15:52:01.765Z,17.47
2022-10-23T15:54:30.673Z,17.40
2022-10-23T15:56:59.809Z,17.34
2022-10-23T15:59:26.753Z,17.28
2022-10-23T16:01:53.430Z,17.22
2022-10-23T16:04:21.932Z,17.16
2022-10-23T16:06:48.684Z,17.11
2022-10-23T16:09:15.727Z,17.06
2022-10-23T16:11:43.507Z,17.02
2022-10-23T16:14:12.823Z,16.96
2022-10-23T16:16:39.327Z,16.93
2022-10-23T16:19:06.018Z,16.90
2022-10-23T16:21:35.977Z,16.88
2022-10-23T16:24:05.130Z,16.84
2022-10-23T16:26:32.190Z,16.81
2022-10-23T16:29:00.244Z,16.78
2022-10-23T16:31:27.166Z,16.75
2022-10-23T16:36:28.858Z,16.67
2022-10-23T16:38:56.823Z,16.64
2022-10-23T16:41:23.305Z,16.61
2022-10-23T16:43:49.953Z,16.59
2022-10-23T16:46:18.325Z,16.57
2022-10-23T16:48:45.780Z,16.54
2022-10-23T16:51:21.724Z,16.51
2022-10-23T16:53:48.790Z,16.50
2022-10-23T16:56:17.068Z,16.48
2022-10-23T16:58:44.363Z,16.45
2022-10-23T17:01:13.101Z,16.45
2022-10-23T17:03:41.705Z,16.43
2022-10-23T17:06:11.162Z,16.42
2022-10-23T17:08:39.511Z,16.40
2022-10-23T17:11:08.187Z,16.39
2022-10-23T17:13:35.911Z,16.39
2022-10-23T17:16:04.511Z,16.37
2022-10-23T17:18:31.136Z,16.36
2022-10-23T17:20:58.027Z,16.37
2022-10-23T17:23:24.696Z,16.36
2022-10-23T17:25:52.633Z,16.37
2022-10-23T17:28:19.174Z,16.36
2022-10-23T17:30:45.688Z,16.35
2022-10-23T17:33:12.383Z,16.35
2022-10-23T17:35:39.485Z,16.32
2022-10-23T17:38:06.261Z,16.31
2022-10-23T17:40:33.024Z,16.31
2022-10-23T17:43:01.216Z,16.29
2022-10-23T17:45:27.910Z,16.28
2022-10-23T17:47:54.370Z,16.26
2022-10-23T17:50:20.861Z,16.24
2022-10-23T17:52:47.426Z,16.24
2022-10-23T17:55:13.950Z,16.24
2022-10-23T17:57:40.792Z,16.24
2022-10-23T18:00:09.989Z,16.24
2022-10-23T18:02:36.578Z,16.23
2022-10-23T18:05:03.396Z,16.21
2022-10-23T18:07:29.904Z,16.21
2022-10-23T18:09:56.489Z,16.18
2022-10-23T18:12:23.138Z,16.18
2022-10-23T18:14:49.703Z,16.16
2022-10-23T18:17:17.564Z,16.15
2022-10-23T18:19:44.091Z,16.13
2022-10-23T18:22:10.631Z,16.10
2022-10-23T18:24:37.215Z,16.08
2022-10-23T18:27:03.841Z,16.06
2022-10-23T18:29:30.523Z,16.04
2022-10-23T18:31:56.984Z,16.01
2022-10-23T18:34:25.459Z,16.00
2022-10-23T18:36:53.706Z,15.98
2022-10-23T18:39:22.816Z,15.96
2022-10-23T18:41:51.380Z,15.93
2022-10-23T18:44:19.843Z,15.91
2022-10-23T18:46:47.715Z,15.89
2022-10-23T18:49:16.254Z,15.88
2022-10-23T18:51:44.438Z,15.84
2022-10-23T18:54:13.577Z,15.81
2022-10-23T18:56:40.617Z,15.79
2022-10-23T18:59:11.253Z,15.80
2022-10-23T19:01:37.848Z,15.78
2022-10-23T19:04:05.329Z,15.77
2022-10-23T19:06:32.640Z,15.77
2022-10-23T19:09:00.474Z,15.77
2022-10-23T19:11:28.330Z,15.76
2022-10-23T19:13:55.179Z,15.75
2022-10-23T19:16:25.370Z,15.73
2022-10-23T19:18:55.635Z,15.72
2022-10-23T19:21:24.379Z,15.70
2022-10-23T19:23:51.968Z,15.69
2022-10-23T19:26:19.868Z,15.68
2022-10-23T19:28:48.195Z,15.67
2022-10-23T19:31:14.865Z,15.66
2022-10-23T19:33:41.524Z,15.65
2022-10-23T19:36:12.675Z,15.65
2022-10-23T19:38:40.824Z,15.64
2022-10-23T19:41:07.774Z,15.63
2022-10-23T19:43:36.139Z,15.63
2022-10-23T19:46:06.335Z,15.61
2022-10-23T19:48:35.964Z,15.59
2022-10-23T19:51:02.537Z,15.57
2022-10-23T19:53:29.279Z,15.56
2022-10-23T19:56:01.798Z,15.54
2022-10-23T19:58:28.286Z,15.54
2022-10-23T20:00:56.226Z,15.53
2022-10-23T20:03:22.762Z,15.51
2022-10-23T20:05:49.752Z,15.50
2022-10-23T20:08:16.244Z,15.49
2022-10-23T20:10:44.250Z,15.46
2022-10-23T20:13:26.468Z,15.46
2022-10-23T20:15:53.121Z,15.44
2022-10-23T20:18:21.183Z,15.42
2022-10-23T20:20:47.698Z,15.40
2022-10-23T20:23:14.195Z,15.39
2022-10-23T20:25:40.761Z,15.36
2022-10-23T20:28:09.121Z,15.32
2022-10-23T20:30:40.167Z,15.31
2022-10-23T20:33:06.997Z,15.28
2022-10-23T20:35:38.950Z,15.26
2022-10-23T20:38:05.509Z,15.23
2022-10-23T20:40:32.324Z,15.19
2022-10-23T20:42:58.852Z,15.16
2022-10-23T20:45:25.338Z,15.12
2022-10-23T20:47:51.860Z,15.09
2022-10-23T20:50:18.485Z,15.06
2022-10-23T20:52:46.398Z,15.02
2022-10-23T20:55:12.886Z,14.98
2022-10-23T20:57:39.378Z,14.95
2022-10-23T21:00:07.277Z,14.92
2022-10-23T21:02:33.856Z,14.88
2022-10-23T21:05:00.433Z,14.86
2022-10-23T21:07:26.915Z,14.81
2022-10-23T21:09:54.742Z,14.79
2022-10-23T21:12:21.229Z,14.76
2022-10-23T21:14:47.754Z,14.72
2022-10-23T21:17:14.258Z,14.68
2022-10-23T21:19:40.738Z,14.64
2022-10-23T21:22:07.204Z,14.60
2022-10-23T21:24:33.841Z,14.57
2022-10-23T21:27:01.657Z,14.54
2022-10-23T21:29:28.141Z,14.49
2022-10-23T21:31:57.131Z,14.46
2022-10-23T21:34:24.538Z,14.44
2022-10-23T21:37:11.922Z,14.41
2022-10-23T21:39:37.817Z,14.38
2022-10-23T21:42:05.770Z,14.36
2022-10-23T21:44:32.644Z,14.35
2022-10-23T21:46:59.130Z,14.33
2022-10-23T21:49:25.689Z,14.33
2022-10-23T21:51:52.323Z,14.32
2022-10-23T21:54:18.843Z,14.31
2022-10-23T21:56:46.809Z,14.29
2022-10-23T21:59:17.812Z,14.28
2022-10-23T22:01:46.054Z,14.28
2022-10-23T22:04:14.388Z,14.28
2022-10-23T22:06:41.863Z,14.28
2022-10-23T22:09:08.682Z,14.30
2022-10-23T22:11:35.238Z,14.30
2022-10-23T22:14:01.762Z,14.31
2022-10-23T22:16:29.666Z,14.32
2022-10-23T22:18:56.510Z,14.34
2022-10-23T22:21:25.283Z,14.34
2022-10-23T22:23:54.723Z,14.35
2022-10-23T22:26:23.888Z,14.35
2022-10-23T22:28:51.868Z,14.37
2022-10-23T22:31:20.688Z,14.40
2022-10-23T22:33:48.882Z,14.42
2022-10-23T22:36:15.692Z,14.44
2022-10-23T22:38:42.805Z,14.46
2022-10-23T22:41:09.648Z,14.46
2022-10-23T22:43:36.369Z,14.48
2022-10-23T22:46:04.368Z,14.49
2022-10-23T22:48:30.894Z,14.49
2022-10-23T22:50:58.878Z,14.52
2022-10-23T22:53:25.469Z,14.49
2022-10-23T22:55:52.374Z,14.49
2022-10-23T22:58:18.923Z,14.51
2022-10-23T23:00:45.680Z,14.51
2022-10-23T23:03:12.256Z,14.52
2022-10-23T23:08:15.288Z,14.55
2022-10-23T23:10:41.940Z,14.58
2022-10-23T23:13:08.649Z,14.60
2022-10-23T23:15:39.078Z,14.63
2022-10-23T23:18:05.725Z,14.63
2022-10-23T23:20:32.267Z,14.64
2022-10-23T23:22:58.741Z,14.65
2022-10-23T23:25:26.665Z,14.67
2022-10-23T23:27:53.189Z,14.68
2022-10-23T23:30:19.714Z,14.70
2022-10-23T23:32:47.649Z,14.71
2022-10-23T23:35:14.341Z,14.71
2022-10-23T23:37:40.837Z,14.74
2022-10-23T23:40:08.530Z,14.75
2022-10-23T23:42:36.383Z,14.74
2022-10-23T23:45:14.179Z,14.74
2022-10-23T23:47:42.003Z,14.73
2022-10-23T23:50:10.973Z,14.71
2022-10-23T23:52:37.538Z,14.69
2022-10-23T23:55:05.137Z,14.68
2022-10-23T23:57:31.673Z,14.66
2022-10-23T23:59:59.706Z,14.65
